Impacts TAF Board
For situational awareness. Not to be used for flight planning purposes.
IDs:

KOLS - Nogales Intl, AZ, US

Issued at 0520 UTC 30 Oct 2020
Updated at 0701 UTC 30 Oct 2020
Potential Impact None Slight Moderate High
Time<<31/07Z 31/08Z 31/09Z 31/10Z 31/11Z 31/12Z 31/13Z 31/14Z 31/15Z 31/16Z 31/17Z 31/18Z 31/19Z
Type
VIS
CIG
Cover
FltCat
WX
WDir
WSpd
WGst
Raw TAF
KOLS 300520Z 3006/3106 05005KT P6SM FEW250
  FM301800 24007KT P6SM SCT250
  FM310200 06004KT P6SM FEW250


METAR Board
Radar Display
Forecast Discussion
For situational awareness. Not to be used for flight planning purposes.